Time,TemperatureF,DewpointF,PressureIn,WindDirection,WindDirectionDegrees,WindSpeedMPH,WindSpeedGustMPH,Humidity,HourlyPrecipIn,Conditions,Clouds,dailyrainin,SoftwareType,DateUTC
2014-04-20 00:13:00,51.0,33.0,30.29,WNW,287,3.0,12.0,50,0.00,,,0.00,,2014-04-20 05:13:00,
2014-04-20 00:23:00,51.0,33.0,30.29,NNW,339,5.0,14.0,50,0.00,,,0.00,,2014-04-20 05:23:00,
2014-04-20 00:53:00,50.0,32.0,30.30,NW,320,5.0,14.0,50,0.00,,,0.00,,2014-04-20 05:53:00,
2014-04-20 01:12:00,49.0,31.0,30.29,West,275,4.0,14.0,49,0.00,,,0.00,,2014-04-20 06:12:00,
2014-04-20 01:22:00,49.0,31.0,30.29,NW,305,4.0,9.0,49,0.00,,,0.00,,2014-04-20 06:22:00,
2014-04-20 01:42:00,48.0,30.0,30.29,West,271,4.0,10.0,50,0.00,,,0.00,,2014-04-20 06:42:00,
2014-04-20 01:52:00,47.0,30.0,30.29,WNW,292,4.0,9.0,51,0.00,,,0.00,,2014-04-20 06:52:00,
2014-04-20 02:11:00,47.0,30.0,30.29,WNW,300,4.0,9.0,51,0.00,,,0.00,,2014-04-20 07:11:00,
2014-04-20 02:22:00,46.0,29.0,30.28,WSW,254,3.0,9.0,51,0.00,,,0.00,,2014-04-20 07:22:00,
2014-04-20 02:52:00,46.0,28.0,30.28,West,261,4.0,8.0,50,0.00,,,0.00,,2014-04-20 07:52:00,
2014-04-20 03:12:00,45.0,28.0,30.27,NE,36,2.0,11.0,51,0.00,,,0.00,,2014-04-20 08:12:00,
2014-04-20 03:22:00,45.0,28.0,30.27,SW,233,4.0,8.0,51,0.00,,,0.00,,2014-04-20 08:22:00,
2014-04-20 03:43:00,45.0,28.0,30.28,NNE,15,5.0,13.0,51,0.00,,,0.00,,2014-04-20 08:43:00,
2014-04-20 03:52:00,44.0,28.0,30.27,NW,317,4.0,8.0,52,0.00,,,0.00,,2014-04-20 08:52:00,
2014-04-20 04:11:00,44.0,28.0,30.27,West,281,3.0,7.0,52,0.00,,,0.00,,2014-04-20 09:11:00,
2014-04-20 04:22:00,44.0,28.0,30.27,West,266,2.0,8.0,53,0.00,,,0.00,,2014-04-20 09:22:00,
2014-04-20 04:43:00,43.0,28.0,30.27,NW,319,4.0,8.0,54,0.00,,,0.00,,2014-04-20 09:43:00,
2014-04-20 04:54:00,43.0,28.0,30.27,NW,306,3.0,8.0,55,0.00,,,0.00,,2014-04-20 09:54:00,
2014-04-20 05:13:00,43.0,28.0,30.27,NW,314,3.0,6.0,56,0.00,,,0.00,,2014-04-20 10:13:00,
2014-04-20 05:23:00,43.0,29.0,30.27,NW,304,1.0,6.0,57,0.00,,,0.00,,2014-04-20 10:23:00,
2014-04-20 05:43:00,43.0,29.0,30.27,NW,320,2.0,10.0,57,0.00,,,0.00,,2014-04-20 10:43:00,
2014-04-20 05:53:00,42.0,28.0,30.27,NNW,343,2.0,8.0,58,0.00,,,0.00,,2014-04-20 10:53:00,
2014-04-20 06:12:00,42.0,29.0,30.27,NW,317,4.0,9.0,59,0.00,,,0.00,,2014-04-20 11:12:00,
2014-04-20 06:22:00,42.0,29.0,30.27,NNW,329,3.0,8.0,59,0.00,,,0.00,,2014-04-20 11:22:00,
2014-04-20 06:43:00,42.0,29.0,30.27,NW,320,4.0,8.0,60,0.00,,,0.00,,2014-04-20 11:43:00,
2014-04-20 06:52:00,42.0,29.0,30.27,WSW,248,2.0,7.0,60,0.00,,,0.00,,2014-04-20 11:52:00,
2014-04-20 07:12:00,43.0,30.0,30.27,NNW,334,2.0,7.0,60,0.00,,,0.00,,2014-04-20 12:12:00,
2014-04-20 07:22:00,43.0,30.0,30.27,NW,317,3.0,9.0,60,0.00,,,0.00,,2014-04-20 12:22:00,
2014-04-20 07:42:00,43.0,30.0,30.27,West,263,3.0,12.0,60,0.00,,,0.00,,2014-04-20 12:42:00,
2014-04-20 07:53:00,44.0,31.0,30.28,NNW,346,4.0,9.0,60,0.00,,,0.00,,2014-04-20 12:53:00,
2014-04-20 08:12:00,45.0,32.0,30.28,North,360,5.0,9.0,59,0.00,,,0.00,,2014-04-20 13:12:00,
2014-04-20 08:22:00,46.0,32.0,30.28,NNW,341,5.0,9.0,58,0.00,,,0.00,,2014-04-20 13:22:00,
2014-04-20 08:42:00,47.0,33.0,30.28,North,355,5.0,9.0,57,0.00,,,0.00,,2014-04-20 13:42:00,
2014-04-20 08:52:00,49.0,34.0,30.27,North,360,4.0,7.0,55,0.00,,,0.00,,2014-04-20 13:52:00,
2014-04-20 09:11:00,50.0,34.0,30.27,North,5,5.0,9.0,54,0.00,,,0.00,,2014-04-20 14:11:00,
2014-04-20 09:22:00,52.0,34.0,30.27,NNW,344,4.0,10.0,51,0.00,,,0.00,,2014-04-20 14:22:00,
2014-04-20 09:42:00,54.0,34.0,30.27,NNW,330,5.0,13.0,47,0.00,,,0.00,,2014-04-20 14:42:00,
2014-04-20 09:52:00,56.0,35.0,30.27,NE,37,7.0,15.0,45,0.00,,,0.00,,2014-04-20 14:52:00,
2014-04-20 10:11:00,59.0,35.0,30.26,NE,46,8.0,14.0,40,0.00,,,0.00,,2014-04-20 15:11:00,
2014-04-20 10:22:00,60.0,35.0,30.26,North,360,10.0,15.0,39,0.00,,,0.00,,2014-04-20 15:22:00,
2014-04-20 10:54:00,62.0,37.0,30.25,NNE,12,8.0,18.0,39,0.00,,,0.00,,2014-04-20 15:54:00,
2014-04-20 11:13:00,63.0,37.0,30.25,NE,36,9.0,14.0,38,0.00,,,0.00,,2014-04-20 16:13:00,
2014-04-20 11:23:00,64.0,37.0,30.24,North,5,9.0,19.0,37,0.00,,,0.00,,2014-04-20 16:23:00,
2014-04-20 11:43:00,66.0,38.0,30.24,NE,38,9.0,18.0,36,0.00,,,0.00,,2014-04-20 16:43:00,
2014-04-20 11:53:00,66.0,38.0,30.24,NNE,24,10.0,16.0,36,0.00,,,0.00,,2014-04-20 16:53:00,
2014-04-20 12:22:00,68.0,39.0,30.23,NNW,346,5.0,15.0,35,0.00,,,0.00,,2014-04-20 17:22:00,
2014-04-20 12:43:00,68.0,39.0,30.22,NNE,15,9.0,13.0,34,0.00,,,0.00,,2014-04-20 17:43:00,
2014-04-20 12:53:00,70.0,40.0,30.22,North,360,7.0,13.0,33,0.00,,,0.00,,2014-04-20 17:53:00,
2014-04-20 13:12:00,70.0,40.0,30.21,North,5,6.0,13.0,33,0.00,,,0.00,,2014-04-20 18:12:00,
2014-04-20 13:22:00,71.0,40.0,30.20,North,355,4.0,13.0,32,0.00,,,0.00,,2014-04-20 18:22:00,
2014-04-20 13:52:00,72.0,40.0,30.19,NE,55,4.0,13.0,31,0.00,,,0.00,,2014-04-20 18:52:00,
2014-04-20 14:12:00,73.0,41.0,30.19,NNE,28,6.0,11.0,31,0.00,,,0.00,,2014-04-20 19:12:00,
2014-04-20 14:22:00,73.0,41.0,30.18,NNE,30,5.0,9.0,31,0.00,,,0.00,,2014-04-20 19:22:00,
2014-04-20 14:42:00,73.0,40.0,30.18,NNE,24,3.0,8.0,30,0.00,,,0.00,,2014-04-20 19:42:00,
2014-04-20 14:52:00,73.0,40.0,30.17,NE,49,7.0,12.0,30,0.00,,,0.00,,2014-04-20 19:52:00,
2014-04-20 15:12:00,74.0,41.0,30.16,ENE,71,4.0,9.0,30,0.00,,,0.00,,2014-04-20 20:12:00,
2014-04-20 15:22:00,74.0,40.0,30.16,NNW,329,6.0,13.0,29,0.00,,,0.00,,2014-04-20 20:22:00,
2014-04-20 15:42:00,75.0,41.0,30.16,NE,42,5.0,11.0,29,0.00,,,0.00,,2014-04-20 20:42:00,
2014-04-20 15:52:00,75.0,41.0,30.15,NNE,31,5.0,10.0,29,0.00,,,0.00,,2014-04-20 20:52:00,
2014-04-20 16:12:00,76.0,41.0,30.15,East,86,8.0,12.0,28,0.00,,,0.00,,2014-04-20 21:12:00,
2014-04-20 16:22:00,76.0,41.0,30.14,ENE,76,4.0,12.0,29,0.00,,,0.00,,2014-04-20 21:22:00,
2014-04-20 16:43:00,76.0,41.0,30.14,NE,36,9.0,13.0,28,0.00,,,0.00,,2014-04-20 21:43:00,
2014-04-20 16:53:00,76.0,41.0,30.13,NE,55,6.0,14.0,28,0.00,,,0.00,,2014-04-20 21:53:00,
2014-04-20 17:13:00,75.0,40.0,30.13,North,360,7.0,14.0,28,0.00,,,0.00,,2014-04-20 22:13:00,
2014-04-20 17:23:00,75.0,40.0,30.13,NNE,16,5.0,12.0,28,0.00,,,0.00,,2014-04-20 22:23:00,
2014-04-20 17:42:00,75.0,41.0,30.12,NE,38,5.0,10.0,29,0.00,,,0.00,,2014-04-20 22:42:00,
2014-04-20 17:53:00,75.0,41.0,30.12,NNE,32,5.0,11.0,29,0.00,,,0.00,,2014-04-20 22:53:00,
2014-04-20 18:12:00,75.0,41.0,30.12,NNE,27,7.0,13.0,29,0.00,,,0.00,,2014-04-20 23:12:00,
2014-04-20 18:22:00,75.0,41.0,30.12,ENE,68,4.0,10.0,29,0.00,,,0.00,,2014-04-20 23:22:00,
2014-04-20 18:42:00,75.0,41.0,30.11,North,360,6.0,10.0,29,0.00,,,0.00,,2014-04-20 23:42:00,
2014-04-20 18:53:00,74.0,40.0,30.11,North,360,6.0,10.0,29,0.00,,,0.00,,2014-04-20 23:53:00,
2014-04-20 19:12:00,74.0,41.0,30.11,NE,44,4.0,9.0,30,0.00,,,0.00,,2014-04-21 00:12:00,
2014-04-20 19:22:00,73.0,41.0,30.10,NE,35,2.0,7.0,31,0.00,,,0.00,,2014-04-21 00:22:00,
2014-04-20 19:42:00,72.0,40.0,30.10,North,5,3.0,9.0,31,0.00,,,0.00,,2014-04-21 00:42:00,
2014-04-20 19:52:00,71.0,40.0,30.11,NNW,338,2.0,5.0,32,0.00,,,0.00,,2014-04-21 00:52:00,
2014-04-20 20:11:00,71.0,40.0,30.11,North,351,2.0,5.0,33,0.00,,,0.00,,2014-04-21 01:11:00,
2014-04-20 20:22:00,70.0,40.0,30.10,NNW,337,4.0,5.0,34,0.00,,,0.00,,2014-04-21 01:22:00,
2014-04-20 20:52:00,68.0,39.0,30.10,NW,323,2.0,5.0,35,0.00,,,0.00,,2014-04-21 01:52:00,
2014-04-20 21:12:00,67.0,39.0,30.10,NW,317,2.0,7.0,36,0.00,,,0.00,,2014-04-21 02:12:00,
2014-04-20 21:22:00,67.0,40.0,30.10,NW,311,4.0,8.0,37,0.00,,,0.00,,2014-04-21 02:22:00,
2014-04-20 21:52:00,66.0,39.0,30.09,WNW,300,4.0,9.0,37,0.00,,,0.00,,2014-04-21 02:52:00,